createdAt,value
2018-04-07T00:00:47.094Z,8.90
2018-04-07T00:03:14.659Z,8.90
2018-04-07T00:05:42.222Z,8.90
2018-04-07T00:08:09.771Z,8.80
2018-04-07T00:10:37.350Z,8.80
2018-04-07T00:13:05.673Z,8.70
2018-04-07T00:15:33.222Z,8.60
2018-04-07T00:18:00.789Z,8.60
2018-04-07T00:20:28.338Z,8.60
2018-04-07T00:22:55.910Z,8.60
2018-04-07T00:25:23.458Z,8.40
2018-04-07T00:27:51.014Z,8.30
2018-04-07T00:30:18.590Z,8.20
2018-04-07T00:32:46.150Z,8.20
2018-04-07T00:35:13.731Z,8.30
2018-04-07T00:37:41.282Z,8.10
2018-04-07T00:40:08.841Z,8.20
2018-04-07T00:42:36.407Z,8.00
2018-04-07T00:45:03.954Z,8.00
2018-04-07T00:47:31.529Z,8.00
2018-04-07T00:49:59.066Z,8.00
2018-04-07T00:52:27.386Z,7.90
2018-04-07T00:54:54.954Z,8.00
2018-04-07T00:57:22.506Z,8.00
2018-04-07T00:59:50.073Z,8.00
2018-04-07T01:02:17.614Z,8.00
2018-04-07T01:04:45.185Z,7.90
2018-04-07T01:07:12.868Z,7.90
2018-04-07T01:09:41.193Z,7.90
2018-04-07T01:12:08.742Z,7.90
2018-04-07T01:14:36.330Z,8.00
2018-04-07T01:17:03.886Z,7.80
2018-04-07T01:19:31.855Z,7.70
2018-04-07T01:21:59.401Z,7.60
2018-04-07T01:24:26.962Z,7.60
2018-04-07T01:26:54.664Z,7.60
2018-04-07T01:29:22.998Z,7.60
2018-04-07T01:31:50.537Z,7.50
2018-04-07T01:34:18.114Z,7.60
2018-04-07T01:36:45.667Z,7.50
2018-04-07T01:39:13.251Z,7.50
2018-04-07T01:41:40.805Z,7.40
2018-04-07T01:44:08.370Z,7.50
2018-04-07T01:46:35.929Z,7.50
2018-04-07T01:49:03.506Z,7.50
2018-04-07T01:51:31.058Z,7.50
2018-04-07T01:53:59.423Z,7.60
2018-04-07T01:56:26.970Z,7.60
2018-04-07T01:58:54.545Z,7.60
2018-04-07T02:01:22.102Z,7.60
2018-04-07T02:03:49.674Z,7.60
2018-04-07T02:06:17.219Z,7.80
2018-04-07T02:08:44.779Z,8.00
2018-04-07T02:11:12.338Z,8.30
2018-04-07T02:13:40.667Z,8.60
2018-04-07T02:16:08.219Z,8.60
2018-04-07T02:18:36.552Z,8.80
2018-04-07T02:21:04.113Z,8.80
2018-04-07T02:23:31.669Z,8.90
2018-04-07T02:25:59.215Z,8.90
2018-04-07T02:28:26.783Z,8.90
2018-04-07T02:30:54.334Z,8.90
2018-04-07T02:33:21.897Z,9.00
2018-04-07T02:35:49.447Z,9.00
2018-04-07T02:38:17.021Z,9.00
2018-04-07T02:40:44.574Z,8.90
2018-04-07T02:43:12.151Z,8.90
2018-04-07T02:45:39.705Z,8.80
2018-04-07T02:48:07.277Z,8.80
2018-04-07T02:50:34.819Z,8.80
2018-04-07T02:53:02.393Z,8.80
2018-04-07T02:55:29.934Z,8.80
2018-04-07T02:57:57.518Z,8.80
2018-04-07T03:00:25.080Z,8.80
2018-04-07T03:02:52.641Z,8.80
2018-04-07T03:05:20.202Z,8.70
2018-04-07T03:07:47.753Z,8.80
2018-04-07T03:10:15.323Z,8.80
2018-04-07T03:12:42.875Z,8.80
2018-04-07T03:15:10.442Z,8.80
2018-04-07T03:17:37.989Z,8.80
2018-04-07T03:20:05.701Z,8.80
2018-04-07T03:22:33.266Z,8.80
2018-04-07T03:25:00.848Z,8.70
2018-04-07T03:27:28.401Z,8.80
2018-04-07T03:29:55.971Z,8.80
2018-04-07T03:32:23.525Z,8.70
2018-04-07T03:34:51.093Z,8.60
2018-04-07T03:37:18.645Z,8.50
2018-04-07T03:39:46.209Z,8.50
2018-04-07T03:42:13.767Z,8.50
2018-04-07T03:44:41.329Z,8.50
2018-04-07T03:47:08.875Z,8.50
2018-04-07T03:49:36.547Z,8.40
2018-04-07T03:52:04.089Z,8.40
2018-04-07T03:54:31.661Z,8.30
2018-04-07T03:56:59.210Z,8.30
2018-04-07T03:59:26.774Z,8.30
2018-04-07T04:01:55.272Z,8.30
2018-04-07T04:04:22.837Z,8.20
2018-04-07T04:06:50.397Z,8.10
2018-04-07T04:09:17.969Z,8.10
2018-04-07T04:11:45.526Z,8.10
2018-04-07T04:14:13.106Z,8.20
2018-04-07T04:16:40.666Z,8.20
2018-04-07T04:19:09.006Z,8.20
2018-04-07T04:21:37.329Z,8.20
2018-04-07T04:24:05.674Z,8.20
2018-04-07T04:26:33.225Z,8.20
2018-04-07T04:29:00.794Z,8.20
2018-04-07T04:31:28.348Z,8.20
2018-04-07T04:33:55.914Z,8.10
2018-04-07T04:36:23.475Z,8.10
2018-04-07T04:38:51.058Z,8.00
2018-04-07T04:41:19.386Z,8.00
2018-04-07T04:43:46.963Z,8.00
2018-04-07T04:46:14.514Z,7.90
2018-04-07T04:48:42.078Z,7.90
2018-04-07T04:51:09.638Z,7.90
2018-04-07T04:53:37.202Z,7.90
2018-04-07T04:56:04.758Z,7.90
2018-04-07T04:58:32.354Z,7.80
2018-04-07T05:01:00.673Z,7.70
2018-04-07T05:03:28.239Z,7.70
2018-04-07T05:05:55.803Z,7.70
2018-04-07T05:08:23.376Z,7.70
2018-04-07T05:10:50.934Z,7.70
2018-04-07T05:13:18.501Z,7.80
2018-04-07T05:15:46.069Z,7.80
2018-04-07T05:18:13.638Z,7.80
2018-04-07T05:20:41.190Z,7.70
2018-04-07T05:23:08.778Z,7.70
2018-04-07T05:25:37.197Z,7.80
2018-04-07T05:28:04.742Z,7.70
2018-04-07T05:30:32.277Z,7.70
2018-04-07T05:32:59.856Z,7.70
2018-04-07T05:35:28.320Z,7.70
2018-04-07T05:37:55.874Z,7.70
2018-04-07T05:40:24.176Z,7.70
2018-04-07T05:42:51.725Z,7.70
2018-04-07T05:45:19.266Z,7.80
2018-04-07T05:47:47.566Z,7.90
2018-04-07T05:50:15.137Z,7.80
2018-04-07T05:52:42.690Z,7.90
2018-04-07T05:55:10.244Z,7.90
2018-04-07T05:57:37.777Z,8.00
2018-04-07T06:00:06.097Z,8.00
2018-04-07T06:02:33.641Z,8.00
2018-04-07T06:05:01.180Z,8.00
2018-04-07T06:07:29.483Z,8.10
2018-04-07T06:09:57.052Z,8.10
2018-04-07T06:12:24.581Z,8.20
2018-04-07T06:14:52.904Z,8.30
2018-04-07T06:17:20.458Z,8.20
2018-04-07T06:19:48.068Z,8.30
2018-04-07T06:22:16.372Z,8.40
2018-04-07T06:24:43.918Z,8.40
2018-04-07T06:27:11.453Z,8.50
2018-04-07T06:29:39.015Z,8.60
2018-04-07T06:32:06.538Z,8.60
2018-04-07T06:34:34.092Z,8.70
2018-04-07T06:37:01.632Z,8.80
2018-04-07T06:39:29.399Z,8.80
2018-04-07T06:41:57.081Z,8.90
2018-04-07T06:44:25.440Z,9.10
2018-04-07T06:46:52.980Z,9.00
2018-04-07T06:49:20.558Z,9.10
2018-04-07T06:51:48.104Z,9.20
2018-04-07T06:54:15.668Z,9.30
2018-04-07T06:56:43.198Z,9.50
2018-04-07T06:59:11.510Z,9.80
2018-04-07T07:01:39.061Z,9.80
2018-04-07T07:04:06.642Z,10.00
2018-04-07T07:06:34.185Z,10.10
2018-04-07T07:09:01.798Z,10.30
2018-04-07T07:11:29.318Z,10.40
2018-04-07T07:13:56.879Z,10.60
2018-04-07T07:16:24.439Z,10.70
2018-04-07T07:18:52.013Z,10.80
2018-04-07T07:21:19.564Z,11.00
2018-04-07T07:23:47.117Z,11.20
2018-04-07T07:26:15.443Z,11.50
2018-04-07T07:28:43.014Z,11.50
2018-04-07T07:31:11.328Z,11.90
2018-04-07T07:33:38.905Z,11.90
2018-04-07T07:36:06.447Z,12.10
2018-04-07T07:38:33.990Z,12.30
2018-04-07T07:41:01.540Z,12.60
2018-04-07T07:43:29.850Z,13.10
2018-04-07T07:45:57.414Z,13.10
2018-04-07T07:48:24.976Z,13.30
2018-04-07T07:50:53.344Z,13.90
2018-04-07T07:53:20.875Z,13.90
2018-04-07T07:55:48.445Z,14.30
2018-04-07T07:58:15.989Z,14.50
2018-04-07T08:00:44.293Z,15.10
2018-04-07T08:03:12.558Z,15.10
2018-04-07T08:05:40.100Z,15.50
2018-04-07T08:08:08.420Z,16.10
2018-04-07T08:10:35.946Z,16.10
2018-04-07T08:13:03.498Z,16.30
2018-04-07T08:15:31.812Z,16.80
2018-04-07T08:17:59.419Z,16.80
2018-04-07T08:20:27.725Z,17.50
2018-04-07T08:22:55.267Z,17.50
2018-04-07T08:25:23.582Z,18.40
2018-04-07T08:27:51.124Z,18.30
2018-04-07T08:30:18.713Z,18.80
2018-04-07T08:32:46.247Z,19.20
2018-04-07T08:35:13.809Z,19.50
2018-04-07T08:37:41.338Z,19.80
2018-04-07T08:40:09.650Z,20.00
2018-04-07T08:42:37.209Z,20.00
2018-04-07T08:45:04.764Z,20.00
2018-04-07T08:47:32.326Z,20.30
2018-04-07T08:50:00.650Z,20.60
2018-04-07T08:52:28.209Z,20.60
2018-04-07T08:54:55.767Z,20.60
2018-04-07T08:57:23.338Z,20.50
2018-04-07T08:59:50.894Z,20.50
2018-04-07T09:02:19.182Z,20.80
2018-04-07T09:04:47.490Z,20.90
2018-04-07T09:07:15.032Z,20.90
2018-04-07T09:09:42.593Z,21.00
2018-04-07T09:12:10.146Z,21.00
2018-04-07T09:14:37.719Z,21.10
2018-04-07T09:17:05.257Z,21.00
2018-04-07T09:19:33.574Z,21.10
2018-04-07T09:22:01.132Z,21.10
2018-04-07T09:24:28.674Z,21.20
2018-04-07T09:26:56.217Z,21.00
2018-04-07T09:29:23.772Z,21.00
2018-04-07T09:31:51.307Z,20.90
2018-04-07T09:34:18.866Z,20.80
2018-04-07T09:36:46.419Z,20.60
2018-04-07T09:39:13.961Z,20.70
2018-04-07T09:41:41.486Z,20.90
2018-04-07T09:44:09.031Z,20.80
2018-04-07T09:46:36.564Z,21.00
2018-04-07T09:49:04.873Z,20.70
2018-04-07T09:51:32.407Z,20.70
2018-04-07T09:54:00.736Z,20.40
2018-04-07T09:56:28.281Z,20.40
2018-04-07T09:58:55.852Z,20.20
2018-04-07T10:01:29.371Z,20.00
2018-04-07T10:03:56.928Z,19.90
2018-04-07T10:06:24.463Z,19.90
2018-04-07T10:08:52.023Z,19.90
2018-04-07T10:11:19.577Z,20.10
2018-04-07T10:13:47.149Z,20.20
2018-04-07T10:16:14.702Z,20.60
2018-04-07T10:18:42.250Z,20.70
2018-04-07T10:21:09.778Z,20.90
2018-04-07T10:23:38.103Z,20.90
2018-04-07T10:26:05.636Z,20.90
2018-04-07T10:28:33.183Z,20.90
2018-04-07T10:31:00.713Z,20.90
2018-04-07T10:33:28.896Z,21.10
2018-04-07T10:35:57.205Z,21.60
2018-04-07T10:38:24.776Z,21.50
2018-04-07T10:40:52.320Z,22.10
2018-04-07T10:43:19.901Z,22.20
2018-04-07T10:45:47.439Z,22.00
2018-04-07T10:48:15.005Z,21.90
2018-04-07T10:50:42.555Z,22.10
2018-04-07T10:53:10.134Z,22.00
2018-04-07T10:55:37.680Z,21.90
2018-04-07T10:58:05.236Z,21.50
2018-04-07T11:00:32.768Z,21.20
2018-04-07T11:03:01.076Z,21.80
2018-04-07T11:05:28.631Z,21.80
2018-04-07T11:07:56.176Z,21.90
2018-04-07T11:10:24.507Z,21.90
2018-04-07T11:12:52.054Z,21.90
2018-04-07T11:15:19.636Z,22.10
2018-04-07T11:17:47.174Z,22.30
2018-04-07T11:20:14.739Z,22.60
2018-04-07T11:22:42.292Z,22.70
2018-04-07T11:25:09.862Z,22.70
2018-04-07T11:27:38.177Z,22.60
2018-04-07T11:30:06.525Z,22.50
2018-04-07T11:32:34.094Z,22.50
2018-04-07T11:35:01.660Z,22.50
2018-04-07T11:37:29.222Z,22.50
2018-04-07T11:39:57.563Z,22.50
2018-04-07T11:42:25.091Z,22.40
2018-04-07T11:44:52.656Z,22.40
2018-04-07T11:47:20.197Z,22.50
2018-04-07T11:49:47.774Z,22.40
2018-04-07T11:52:15.330Z,22.20
2018-04-07T11:54:42.893Z,22.10
2018-04-07T11:57:10.444Z,21.90
2018-04-07T11:59:38.006Z,21.70
2018-04-07T12:02:05.536Z,21.50
2018-04-07T12:04:33.146Z,21.20
2018-04-07T12:07:00.688Z,21.20
2018-04-07T12:09:28.259Z,21.00
2018-04-07T12:11:55.805Z,21.00
2018-04-07T12:14:23.371Z,20.90
2018-04-07T12:16:50.897Z,21.20
2018-04-07T12:19:19.237Z,21.50
2018-04-07T12:21:46.766Z,21.50
2018-04-07T12:24:14.329Z,21.70
2018-04-07T12:26:41.882Z,21.40
2018-04-07T12:29:09.431Z,21.40
2018-04-07T12:31:36.984Z,21.30
2018-04-07T12:34:04.544Z,21.30
2018-04-07T12:36:32.102Z,21.30
2018-04-07T12:38:59.664Z,21.40
2018-04-07T12:41:27.232Z,21.40
2018-04-07T12:43:54.778Z,21.20
2018-04-07T12:46:23.083Z,21.00
2018-04-07T12:48:50.681Z,21.00
2018-04-07T12:51:18.240Z,21.50
2018-04-07T12:53:45.793Z,21.30
2018-04-07T12:56:13.326Z,21.50
2018-04-07T12:58:40.891Z,21.90
2018-04-07T13:01:08.437Z,22.30
2018-04-07T13:03:36.000Z,22.50
2018-04-07T13:06:03.522Z,22.60
2018-04-07T13:08:31.829Z,22.70
2018-04-07T13:10:59.372Z,22.70
2018-04-07T13:13:26.917Z,22.80
2018-04-07T13:15:55.240Z,22.90
2018-04-07T13:18:22.796Z,22.80
2018-04-07T13:20:50.350Z,22.90
2018-04-07T13:23:17.905Z,23.10
2018-04-07T13:25:45.431Z,23.10
2018-04-07T13:28:13.758Z,23.30
2018-04-07T13:30:41.296Z,23.30
2018-04-07T13:33:08.867Z,23.50
2018-04-07T13:35:36.432Z,23.60
2018-04-07T13:38:03.972Z,23.70
2018-04-07T13:40:31.532Z,23.70
2018-04-07T13:42:59.073Z,23.60
2018-04-07T13:45:26.634Z,23.50
2018-04-07T13:47:54.173Z,23.60
2018-04-07T13:50:22.482Z,23.70
2018-04-07T13:52:50.046Z,23.70
2018-04-07T13:55:17.612Z,23.80
2018-04-07T13:57:45.139Z,23.80
2018-04-07T14:00:13.456Z,23.80
2018-04-07T14:02:40.997Z,23.80
2018-04-07T14:05:08.541Z,23.90
2018-04-07T14:07:36.091Z,23.90
2018-04-07T14:10:04.442Z,23.90
2018-04-07T14:12:32.001Z,23.90
2018-04-07T14:15:00.326Z,24.00
2018-04-07T14:17:27.859Z,23.90
2018-04-07T14:19:56.196Z,23.90
2018-04-07T14:22:23.754Z,23.90
2018-04-07T14:24:51.302Z,23.80
2018-04-07T14:27:18.845Z,23.80
2018-04-07T14:29:46.405Z,23.90
2018-04-07T14:32:13.941Z,23.90
2018-04-07T14:34:41.529Z,23.90
2018-04-07T14:37:09.054Z,23.90
2018-04-07T14:39:37.371Z,23.80
2018-04-07T14:42:04.912Z,23.80
2018-04-07T14:44:32.476Z,23.70
2018-04-07T14:47:00.022Z,23.70
2018-04-07T14:49:27.599Z,23.60
2018-04-07T14:51:55.162Z,23.50
2018-04-07T14:54:22.783Z,23.50
2018-04-07T14:56:51.102Z,23.40
2018-04-07T14:59:18.663Z,23.40
2018-04-07T15:01:46.298Z,23.40
2018-04-07T15:04:13.854Z,23.50
2018-04-07T15:06:41.439Z,23.50
2018-04-07T15:09:09.042Z,23.60
2018-04-07T15:11:36.602Z,23.60
2018-04-07T15:14:04.210Z,23.60
2018-04-07T15:16:31.759Z,23.50
2018-04-07T15:18:59.369Z,23.50
2018-04-07T15:21:26.920Z,23.50
2018-04-07T15:23:54.495Z,23.50
2018-04-07T15:26:22.026Z,23.50
2018-04-07T15:28:49.664Z,23.40
2018-04-07T15:31:17.212Z,23.30
2018-04-07T15:33:44.782Z,23.30
2018-04-07T15:36:12.318Z,23.40
2018-04-07T15:38:40.644Z,23.30
2018-04-07T15:41:08.937Z,23.30
2018-04-07T15:43:36.492Z,23.20
2018-04-07T15:46:04.049Z,23.20
2018-04-07T15:48:31.604Z,23.20
2018-04-07T15:50:59.157Z,23.20
2018-04-07T15:53:26.727Z,23.20
2018-04-07T15:55:54.286Z,23.20
2018-04-07T15:58:21.858Z,23.20
2018-04-07T16:00:49.400Z,23.20
2018-04-07T16:03:16.953Z,23.10
2018-04-07T16:05:44.509Z,23.10
2018-04-07T16:08:12.080Z,23.00
2018-04-07T16:10:39.643Z,23.00
2018-04-07T16:13:07.208Z,23.00
2018-04-07T16:15:34.762Z,23.00
2018-04-07T16:18:02.301Z,22.90
2018-04-07T16:20:29.878Z,22.90
2018-04-07T16:22:57.406Z,22.80
2018-04-07T16:25:24.948Z,22.70
2018-04-07T16:27:52.521Z,22.60
2018-04-07T16:30:20.083Z,22.60
2018-04-07T16:32:47.621Z,22.50
2018-04-07T16:35:15.187Z,22.50
2018-04-07T16:37:42.738Z,22.40
2018-04-07T16:40:10.311Z,22.30
2018-04-07T16:42:37.871Z,22.30
2018-04-07T16:45:05.428Z,22.20
2018-04-07T16:47:32.972Z,22.10
2018-04-07T16:50:01.298Z,22.10
2018-04-07T16:52:29.725Z,22.00
2018-04-07T16:54:57.932Z,21.90
2018-04-07T16:57:25.460Z,21.90
2018-04-07T16:59:53.791Z,21.70
2018-04-07T17:02:21.339Z,21.70
2018-04-07T17:04:48.913Z,21.70
2018-04-07T17:07:16.455Z,21.70
2018-04-07T17:09:44.009Z,21.60
2018-04-07T17:12:11.548Z,21.60
2018-04-07T17:14:39.120Z,21.50
2018-04-07T17:17:06.660Z,21.50
2018-04-07T17:19:34.239Z,21.40
2018-04-07T17:22:01.772Z,21.30
2018-04-07T17:24:30.085Z,21.00
2018-04-07T17:26:57.692Z,21.00
2018-04-07T17:29:26.029Z,20.80
2018-04-07T17:31:53.562Z,20.80
2018-04-07T17:34:21.119Z,20.70
2018-04-07T17:36:48.682Z,20.60
2018-04-07T17:39:16.266Z,20.40
2018-04-07T17:41:43.834Z,20.30
2018-04-07T17:44:11.389Z,20.20
2018-04-07T17:46:38.918Z,20.10
2018-04-07T17:49:06.571Z,20.00
2018-04-07T17:51:34.049Z,19.90
2018-04-07T17:54:01.592Z,19.80
2018-04-07T17:56:29.140Z,19.70
2018-04-07T17:58:57.460Z,19.60
2018-04-07T18:01:25.010Z,19.50
2018-04-07T18:03:52.578Z,19.50
2018-04-07T18:06:20.107Z,19.50
2018-04-07T18:08:47.650Z,19.40
2018-04-07T18:11:15.967Z,19.20
2018-04-07T18:13:43.538Z,19.20
2018-04-07T18:16:11.080Z,19.10
2018-04-07T18:18:38.625Z,19.10
2018-04-07T18:21:06.331Z,19.00
2018-04-07T18:23:33.906Z,18.90
2018-04-07T18:26:01.444Z,18.90
2018-04-07T18:28:29.013Z,18.80
2018-04-07T18:30:56.556Z,18.70
2018-04-07T18:33:24.178Z,18.60
2018-04-07T18:35:51.692Z,18.60
2018-04-07T18:38:19.262Z,18.50
2018-04-07T18:40:46.801Z,18.50
2018-04-07T18:43:14.361Z,18.40
2018-04-07T18:45:41.901Z,18.40
2018-04-07T18:48:09.439Z,18.30
2018-04-07T18:50:37.071Z,18.30
2018-04-07T18:53:05.392Z,18.20
2018-04-07T18:55:32.948Z,18.20
2018-04-07T18:58:00.498Z,18.10
2018-04-07T19:00:28.062Z,18.10
2018-04-07T19:02:55.606Z,18.00
2018-04-07T19:05:23.150Z,18.00
2018-04-07T19:07:51.466Z,17.80
2018-04-07T19:10:19.016Z,17.80
2018-04-07T19:12:46.552Z,17.70
2018-04-07T19:15:14.872Z,17.60
2018-04-07T19:17:42.412Z,17.60
2018-04-07T19:20:09.957Z,17.60
2018-04-07T19:22:37.512Z,17.50
2018-04-07T19:25:05.070Z,17.40
2018-04-07T19:27:32.607Z,17.30
2018-04-07T19:30:00.161Z,17.20
2018-04-07T19:32:27.725Z,17.10
2018-04-07T19:34:56.052Z,17.10
2018-04-07T19:37:23.607Z,17.00
2018-04-07T19:39:51.174Z,17.00
2018-04-07T19:42:18.726Z,16.90
2018-04-07T19:44:46.299Z,16.90
2018-04-07T19:47:13.822Z,16.70
2018-04-07T19:49:41.372Z,16.70
2018-04-07T19:52:09.683Z,16.50
2018-04-07T19:54:37.244Z,16.50
2018-04-07T19:57:04.802Z,16.50
2018-04-07T19:59:32.377Z,16.30
2018-04-07T20:01:59.910Z,16.20
2018-04-07T20:04:27.456Z,16.10
2018-04-07T20:06:55.028Z,15.90
2018-04-07T20:09:22.588Z,15.90
2018-04-07T20:11:50.170Z,15.90
2018-04-07T20:14:17.728Z,15.90
2018-04-07T20:16:45.317Z,15.70
2018-04-07T20:19:12.873Z,15.60
2018-04-07T20:21:40.415Z,15.50
2018-04-07T20:24:08.103Z,15.40
2018-04-07T20:26:35.626Z,15.40
2018-04-07T20:29:03.201Z,15.40
2018-04-07T20:31:30.738Z,15.50
2018-04-07T20:33:58.300Z,15.50
2018-04-07T20:36:25.840Z,15.40
2018-04-07T20:38:53.402Z,15.50
2018-04-07T20:41:20.929Z,15.50
2018-04-07T20:43:49.265Z,15.40
2018-04-07T20:46:16.809Z,15.40
2018-04-07T20:48:44.550Z,15.30
2018-04-07T20:51:12.100Z,15.30
2018-04-07T20:53:39.668Z,15.20
2018-04-07T20:56:07.226Z,15.30
2018-04-07T20:58:34.805Z,15.20
2018-04-07T21:01:02.348Z,15.20
2018-04-07T21:03:29.910Z,15.20
2018-04-07T21:05:57.488Z,15.10
2018-04-07T21:08:25.041Z,15.00
2018-04-07T21:10:52.588Z,15.00
2018-04-07T21:13:20.162Z,14.80
2018-04-07T21:15:47.723Z,14.80
2018-04-07T21:18:15.268Z,14.70
2018-04-07T21:20:42.807Z,14.70
2018-04-07T21:23:11.131Z,14.50
2018-04-07T21:25:38.687Z,14.50
2018-04-07T21:28:06.233Z,14.50
2018-04-07T21:30:33.796Z,14.50
2018-04-07T21:33:01.412Z,14.50
2018-04-07T21:35:29.778Z,14.40
2018-04-07T21:37:57.295Z,14.40
2018-04-07T21:40:24.856Z,14.50
2018-04-07T21:42:52.396Z,14.30
2018-04-07T21:45:19.942Z,14.40
2018-04-07T21:47:47.547Z,14.40
2018-04-07T21:50:15.095Z,14.40
2018-04-07T21:52:42.646Z,14.40
2018-04-07T21:55:10.227Z,14.20
2018-04-07T21:57:37.782Z,14.30
2018-04-07T22:00:05.344Z,14.20
2018-04-07T22:02:32.932Z,14.20
2018-04-07T22:05:00.484Z,14.20
2018-04-07T22:07:28.010Z,14.30
2018-04-07T22:09:55.578Z,14.30
2018-04-07T22:12:23.119Z,14.40
2018-04-07T22:14:50.687Z,14.40
2018-04-07T22:17:18.232Z,14.60
2018-04-07T22:19:45.798Z,14.60
2018-04-07T22:22:13.321Z,14.70
2018-04-07T22:24:41.660Z,14.80
2018-04-07T22:27:09.209Z,14.80
2018-04-07T22:29:36.767Z,14.80
2018-04-07T22:32:04.323Z,14.80
2018-04-07T22:34:31.894Z,14.90
2018-04-07T22:36:59.417Z,14.90
2018-04-07T22:39:26.985Z,14.90
2018-04-07T22:41:54.539Z,14.90
2018-04-07T22:44:22.074Z,14.90
2018-04-07T22:46:49.628Z,14.90
2018-04-07T22:49:17.939Z,14.80
2018-04-07T22:51:45.557Z,14.80
2018-04-07T22:54:13.874Z,14.80
2018-04-07T22:56:41.415Z,14.70
2018-04-07T22:59:09.748Z,14.70
2018-04-07T23:01:37.285Z,14.70
2018-04-07T23:04:05.599Z,14.70
2018-04-07T23:06:33.139Z,14.70
2018-04-07T23:09:00.692Z,14.80
2018-04-07T23:11:28.213Z,14.80
2018-04-07T23:13:55.790Z,14.80
2018-04-07T23:16:23.329Z,14.80
2018-04-07T23:18:51.799Z,14.90
2018-04-07T23:21:20.133Z,15.00
2018-04-07T23:23:47.674Z,14.90
2018-04-07T23:26:15.207Z,15.00
2018-04-07T23:28:42.796Z,15.00
2018-04-07T23:31:10.332Z,15.00
2018-04-07T23:33:37.869Z,15.00
2018-04-07T23:36:06.178Z,15.20
2018-04-07T23:38:33.717Z,15.20
2018-04-07T23:41:01.245Z,15.30
2018-04-07T23:43:28.799Z,15.30
2018-04-07T23:45:56.353Z,15.30
2018-04-07T23:48:23.926Z,15.40
2018-04-07T23:50:51.476Z,15.40
2018-04-07T23:53:19.025Z,15.40
2018-04-07T23:55:46.581Z,15.40
2018-04-07T23:58:14.118Z,15.30
